Saverton, Missouri
Current Conditions -  °F | °C
As of 3:35 PM on Thursday 23 Oct 2014 (Local Time) from KHAE Reporting Station
Overcast Overcast  
Wind Chill: 59°   Ceiling: 3800
Heat Index: 59°   Visibility: 10mi
Dew Point: 50°   Wind: 8mph
Humidity: 72%   Direction: 160°SSE
Pressure: 30.08"   Gusts: NA
Location:  39.65°N, 91.27°W
Report Text: KHAE 232035Z AUTO 16007KT 10SM SCT029 OVC038 15/10 A3008 RMK AO2
Loading
Personal Weather Stations






























Interactive Weather Map
Tropical Storm Tracking
New forecast layout! Learn more

10-Day Weather Forecast

Advertisements
Track Severe Weather on mobile